createdAt,value
2023-03-30T00:01:00.649Z,63.30
2023-03-30T00:06:39.361Z,63.41
2023-03-30T00:12:20.802Z,63.57
2023-03-30T00:17:38.779Z,63.69
2023-03-30T00:23:00.732Z,63.70
2023-03-30T00:28:30.898Z,63.74
2023-03-30T00:34:01.183Z,63.77
2023-03-30T00:39:26.922Z,64.08
2023-03-30T00:45:27.762Z,64.11
2023-03-30T00:51:01.505Z,64.32
2023-03-30T00:56:32.453Z,64.25
2023-03-30T01:02:19.026Z,64.22
2023-03-30T01:07:31.751Z,64.18
2023-03-30T01:12:49.528Z,63.98
2023-03-30T01:18:27.506Z,63.99
2023-03-30T01:24:24.506Z,63.91
2023-03-30T01:30:03.357Z,63.72
2023-03-30T01:35:49.500Z,63.62
2023-03-30T01:41:23.066Z,63.69
2023-03-30T01:47:16.214Z,63.73
2023-03-30T01:53:00.074Z,63.88
2023-03-30T01:58:52.297Z,63.86
2023-03-30T02:04:51.030Z,63.61
2023-03-30T02:10:08.275Z,63.54
2023-03-30T02:15:33.746Z,63.72
2023-03-30T02:20:47.757Z,63.57
2023-03-30T02:26:11.850Z,63.52
2023-03-30T02:32:01.920Z,63.29
2023-03-30T02:37:33.830Z,63.38
2023-03-30T02:43:12.540Z,63.28
2023-03-30T02:49:02.273Z,63.31
2023-03-30T02:55:19.344Z,63.33
2023-03-30T03:01:32.162Z,63.55
2023-03-30T03:07:32.423Z,63.56
2023-03-30T03:13:14.432Z,63.47
2023-03-30T03:19:02.152Z,63.22
2023-03-30T03:24:13.700Z,63.20
2023-03-30T03:29:50.061Z,63.22
2023-03-30T03:35:14.331Z,63.20
2023-03-30T03:40:32.869Z,63.13
2023-03-30T03:45:38.414Z,63.10
2023-03-30T03:50:49.326Z,63.18
2023-03-30T03:55:57.196Z,63.16
2023-03-30T04:01:20.013Z,63.17
2023-03-30T04:06:40.133Z,63.30
2023-03-30T04:11:45.053Z,63.40
2023-03-30T04:17:46.928Z,63.58
2023-03-30T04:23:14.327Z,63.59
2023-03-30T04:29:10.256Z,63.42
2023-03-30T04:34:46.577Z,63.64
2023-03-30T04:40:26.742Z,63.68
2023-03-30T04:46:25.742Z,63.74
2023-03-30T04:51:41.043Z,63.87
2023-03-30T04:57:18.318Z,63.88
2023-03-30T05:02:41.224Z,63.87
2023-03-30T05:08:41.848Z,63.80
2023-03-30T05:14:03.113Z,63.76
2023-03-30T05:19:40.790Z,63.74
2023-03-30T05:25:13.228Z,63.71
2023-03-30T05:30:37.126Z,63.79
2023-03-30T05:36:17.427Z,63.56
2023-03-30T05:41:57.245Z,63.30
2023-03-30T05:47:14.527Z,62.84
2023-03-30T05:52:44.621Z,62.58
2023-03-30T05:58:18.691Z,62.39
2023-03-30T06:03:44.936Z,62.19
2023-03-30T06:09:11.296Z,61.81
2023-03-30T06:14:15.722Z,61.26
2023-03-30T06:19:25.724Z,60.49
2023-03-30T06:24:33.840Z,59.85
2023-03-30T06:29:42.106Z,59.64
2023-03-30T06:34:44.902Z,59.22
2023-03-30T06:40:01.460Z,60.17
2023-03-30T06:45:04.894Z,61.14
2023-03-30T06:50:19.796Z,61.94
2023-03-30T06:56:32.793Z,62.21
2023-03-30T07:02:00.596Z,60.56
2023-03-30T07:07:24.806Z,58.80
2023-03-30T07:12:33.163Z,58.88
2023-03-30T07:17:36.844Z,58.92
2023-03-30T07:22:46.673Z,58.88
2023-03-30T07:28:08.695Z,58.88
2023-03-30T07:33:16.346Z,58.73
2023-03-30T07:38:24.121Z,58.59
2023-03-30T07:43:35.772Z,58.95
2023-03-30T07:48:41.778Z,58.56
2023-03-30T07:54:12.575Z,57.46
2023-03-30T07:59:52.206Z,55.87
2023-03-30T08:05:19.104Z,55.19
2023-03-30T08:10:54.848Z,54.53
2023-03-30T08:16:00.579Z,54.21
2023-03-30T08:21:10.856Z,52.69
2023-03-30T08:26:19.122Z,51.93
2023-03-30T08:31:45.514Z,51.91
2023-03-30T08:36:50.214Z,52.37
2023-03-30T08:42:50.855Z,52.35
2023-03-30T08:48:26.123Z,52.43
2023-03-30T08:53:32.502Z,52.64
2023-03-30T08:58:47.027Z,53.29
2023-03-30T09:04:06.772Z,53.16
2023-03-30T09:09:32.358Z,52.80
2023-03-30T09:14:41.704Z,52.77
2023-03-30T09:20:00.161Z,53.46
2023-03-30T09:25:22.743Z,53.56
2023-03-30T09:30:47.169Z,53.87
2023-03-30T09:36:38.007Z,53.77
2023-03-30T09:41:53.746Z,54.20
2023-03-30T09:47:07.090Z,54.09
2023-03-30T09:52:32.047Z,53.02
2023-03-30T09:57:40.440Z,52.90
2023-03-30T10:03:07.434Z,52.16
2023-03-30T10:08:24.417Z,51.88
2023-03-30T10:13:53.953Z,52.28
2023-03-30T10:19:16.796Z,52.51
2023-03-30T10:24:28.208Z,52.09
2023-03-30T10:29:48.788Z,51.44
2023-03-30T10:34:57.868Z,51.29
2023-03-30T10:40:11.845Z,51.22
2023-03-30T10:45:50.496Z,50.58
2023-03-30T10:51:59.830Z,50.08
2023-03-30T10:57:28.746Z,50.26
2023-03-30T11:03:19.919Z,50.27
2023-03-30T11:08:51.720Z,50.75
2023-03-30T11:14:27.595Z,50.85
2023-03-30T11:19:36.877Z,51.97
2023-03-30T11:24:47.459Z,52.58
2023-03-30T11:30:37.031Z,53.01
2023-03-30T11:35:47.148Z,52.84
2023-03-30T11:40:51.864Z,53.10
2023-03-30T11:46:27.357Z,53.37
2023-03-30T11:51:46.177Z,53.33
2023-03-30T11:56:59.104Z,52.71
2023-03-30T12:02:16.834Z,52.00
2023-03-30T12:07:50.210Z,52.46
2023-03-30T12:12:55.504Z,52.63
2023-03-30T12:19:27.633Z,53.17
2023-03-30T12:24:58.138Z,54.03
2023-03-30T12:30:27.031Z,54.61
2023-03-30T12:36:46.957Z,54.99
2023-03-30T12:43:04.423Z,55.09
2023-03-30T12:49:33.466Z,54.61
2023-03-30T12:55:19.516Z,54.86
2023-03-30T13:00:44.838Z,55.41
2023-03-30T13:05:53.316Z,55.75
2023-03-30T13:11:50.005Z,56.47
2023-03-30T13:17:27.276Z,57.32
2023-03-30T13:22:59.982Z,57.93
2023-03-30T13:29:15.726Z,58.34
2023-03-30T13:36:15.093Z,59.30
2023-03-30T13:42:25.819Z,59.24
2023-03-30T13:48:00.433Z,59.39
2023-03-30T13:53:09.568Z,59.52
2023-03-30T13:58:48.627Z,59.62
2023-03-30T14:04:22.129Z,60.40
2023-03-30T14:09:36.038Z,61.12
2023-03-30T14:14:47.278Z,62.07
2023-03-30T14:20:01.459Z,62.43
2023-03-30T14:25:23.385Z,63.53
2023-03-30T14:30:53.314Z,65.38
2023-03-30T14:36:11.690Z,66.71
2023-03-30T14:41:51.016Z,67.74
2023-03-30T14:47:56.210Z,67.94
2023-03-30T14:53:01.943Z,68.86
2023-03-30T14:58:17.678Z,69.39
2023-03-30T15:03:34.483Z,70.33
2023-03-30T15:09:26.265Z,71.08
2023-03-30T15:14:39.366Z,71.36
2023-03-30T15:20:12.446Z,71.76
2023-03-30T15:25:19.014Z,73.03
2023-03-30T15:30:38.040Z,74.21
2023-03-30T15:35:59.845Z,75.05
2023-03-30T15:42:11.012Z,75.76
2023-03-30T15:47:23.252Z,76.89
2023-03-30T15:53:21.102Z,77.46
2023-03-30T15:58:51.493Z,77.54
2023-03-30T16:04:37.213Z,77.45
2023-03-30T16:10:07.673Z,77.36
2023-03-30T16:15:35.551Z,77.82
2023-03-30T16:21:58.503Z,77.91
2023-03-30T16:27:24.337Z,78.55
2023-03-30T16:32:37.069Z,78.30
2023-03-30T16:37:40.479Z,78.94
2023-03-30T16:42:42.531Z,79.18
2023-03-30T16:47:47.425Z,79.12
2023-03-30T16:52:51.657Z,79.28
2023-03-30T16:58:00.396Z,79.49
2023-03-30T17:03:05.377Z,80.13
2023-03-30T17:08:31.433Z,79.87
2023-03-30T17:13:48.821Z,80.11
2023-03-30T17:18:51.353Z,80.32
2023-03-30T17:23:53.531Z,80.08
2023-03-30T17:28:58.107Z,79.94
2023-03-30T17:34:00.148Z,79.89
2023-03-30T17:39:06.306Z,79.74
2023-03-30T17:44:18.165Z,79.89
2023-03-30T17:49:25.820Z,79.93
2023-03-30T17:54:42.938Z,79.94
2023-03-30T17:59:56.431Z,80.00
2023-03-30T18:05:02.285Z,79.80
2023-03-30T18:10:25.705Z,80.11
2023-03-30T18:15:31.665Z,80.24
2023-03-30T18:20:41.190Z,80.22
2023-03-30T18:25:43.484Z,80.10
2023-03-30T18:30:46.370Z,80.08
2023-03-30T18:35:50.609Z,80.00
2023-03-30T18:40:58.589Z,80.18
2023-03-30T18:46:02.457Z,80.22
2023-03-30T18:51:04.877Z,80.42
2023-03-30T18:56:11.024Z,80.93
2023-03-30T19:01:21.986Z,81.14
2023-03-30T19:06:23.926Z,81.22
2023-03-30T19:11:27.373Z,81.33
2023-03-30T19:16:32.287Z,81.42
2023-03-30T19:21:37.980Z,81.66
2023-03-30T19:26:40.895Z,81.86
2023-03-30T19:31:44.439Z,82.09
2023-03-30T19:36:46.616Z,82.34
2023-03-30T19:41:52.110Z,82.38
2023-03-30T19:46:55.191Z,82.11
2023-03-30T19:52:05.259Z,82.19
2023-03-30T19:57:16.837Z,82.13
2023-03-30T20:02:21.914Z,82.03
2023-03-30T20:07:29.460Z,82.13
2023-03-30T20:13:27.331Z,81.98
2023-03-30T20:18:50.029Z,82.08
2023-03-30T20:23:56.096Z,81.87
2023-03-30T20:29:45.601Z,82.03
2023-03-30T20:35:41.832Z,82.14
2023-03-30T20:41:15.089Z,82.08
2023-03-30T20:46:21.935Z,81.82
2023-03-30T20:51:39.919Z,81.61
2023-03-30T20:56:44.830Z,81.32
2023-03-30T21:02:14.879Z,81.22
2023-03-30T21:07:20.107Z,81.13
2023-03-30T21:12:35.365Z,80.84
2023-03-30T21:18:14.195Z,81.16
2023-03-30T21:23:22.444Z,81.46
2023-03-30T21:28:55.976Z,81.39
2023-03-30T21:34:22.412Z,81.31
2023-03-30T21:39:35.685Z,81.03
2023-03-30T21:44:39.154Z,80.83
2023-03-30T21:49:52.634Z,80.66
2023-03-30T21:55:27.883Z,80.45
2023-03-30T22:01:39.578Z,80.16
2023-03-30T22:08:16.510Z,79.76
2023-03-30T22:14:36.333Z,79.27
2023-03-30T22:20:34.014Z,79.00
2023-03-30T22:26:43.083Z,78.93
2023-03-30T22:31:48.844Z,78.84
2023-03-30T22:36:57.940Z,78.80
2023-03-30T22:42:51.250Z,78.74
2023-03-30T22:48:24.489Z,78.54
2023-03-30T22:54:20.534Z,78.33
2023-03-30T23:00:31.759Z,78.27
2023-03-30T23:06:26.301Z,78.25
2023-03-30T23:12:42.165Z,78.24
2023-03-30T23:19:20.532Z,78.21
2023-03-30T23:25:49.936Z,78.69
2023-03-30T23:32:19.771Z,78.79
2023-03-30T23:38:19.028Z,78.40
2023-03-30T23:44:59.579Z,78.23
2023-03-30T23:51:00.893Z,78.08
2023-03-30T23:57:36.099Z,78.14
